createdAt,value
2023-03-07T00:16:06.051Z,95411.94
2023-03-07T00:18:33.085Z,95410.34
2023-03-07T00:21:01.031Z,95412.63
2023-03-07T00:23:35.517Z,95412.13
2023-03-07T00:28:44.078Z,95405.16
2023-03-07T00:31:11.938Z,95404.19
2023-03-07T00:33:39.045Z,95410.50
2023-03-07T00:36:06.912Z,95405.16
2023-03-07T00:38:34.492Z,95399.81
2023-03-07T00:41:02.240Z,95391.06
2023-03-07T00:43:29.375Z,95395.09
2023-03-07T00:45:56.268Z,95396.25
2023-03-07T00:48:23.460Z,95392.69
2023-03-07T00:50:50.496Z,95379.06
2023-03-07T00:53:17.203Z,95382.63
2023-03-07T00:55:53.394Z,95383.63
2023-03-07T00:58:20.057Z,95374.22
2023-03-07T01:00:46.600Z,95374.69
2023-03-07T01:03:13.184Z,95372.28
2023-03-07T01:05:40.036Z,95378.44
2023-03-07T01:08:06.707Z,95367.09
2023-03-07T01:10:33.531Z,95372.28
2023-03-07T01:13:00.440Z,95365.47
2023-03-07T01:15:27.650Z,95365.94
2023-03-07T01:17:54.276Z,95358.00
2023-03-07T01:20:20.872Z,95356.88
2023-03-07T01:22:47.385Z,95366.75
2023-03-07T01:25:13.948Z,95360.75
2023-03-07T01:27:40.481Z,95359.16
2023-03-07T01:30:07.568Z,95343.59
2023-03-07T01:32:34.156Z,95340.50
2023-03-07T01:35:00.632Z,95341.16
2023-03-07T01:37:27.302Z,95340.84
2023-03-07T01:39:53.991Z,95344.41
2023-03-07T01:42:21.302Z,95338.88
2023-03-07T01:45:17.147Z,95329.66
2023-03-07T01:47:43.720Z,95334.03
2023-03-07T01:50:14.181Z,95327.06
2023-03-07T01:52:46.524Z,95326.25
2023-03-07T01:55:13.054Z,95327.38
2023-03-07T01:57:39.866Z,95333.06
2023-03-07T02:00:09.868Z,95328.97
2023-03-07T02:02:37.660Z,95326.91
2023-03-07T02:05:06.533Z,95327.38
2023-03-07T02:07:35.300Z,95316.84
2023-03-07T02:10:02.054Z,95308.91
2023-03-07T02:12:28.595Z,95302.25
2023-03-07T02:14:55.165Z,95302.56
2023-03-07T02:17:21.734Z,95305.31
2023-03-07T02:19:51.284Z,95298.19
2023-03-07T02:22:18.393Z,95296.22
2023-03-07T02:25:06.489Z,95295.75
2023-03-07T02:27:33.540Z,95297.03
2023-03-07T02:30:00.030Z,95287.94
2023-03-07T02:32:26.635Z,95292.97
2023-03-07T02:34:53.180Z,95286.19
2023-03-07T02:37:21.648Z,95285.50
2023-03-07T02:39:48.442Z,95280.81
2023-03-07T02:42:16.687Z,95286.66
2023-03-07T02:44:46.695Z,95278.22
2023-03-07T02:47:13.435Z,95278.53
2023-03-07T02:49:39.979Z,95273.22
2023-03-07T02:52:06.504Z,95266.25
2023-03-07T02:54:33.035Z,95274.50
2023-03-07T02:56:59.661Z,95280.50
2023-03-07T02:59:26.329Z,95274.97
2023-03-07T03:01:52.932Z,95260.88
2023-03-07T03:04:19.561Z,95274.50
2023-03-07T03:06:46.070Z,95268.16
2023-03-07T03:09:12.510Z,95262.00
2023-03-07T03:11:39.092Z,95263.97
2023-03-07T03:14:05.631Z,95268.03
2023-03-07T03:16:32.152Z,95264.13
2023-03-07T03:18:58.706Z,95262.34
2023-03-07T03:21:25.230Z,95266.88
2023-03-07T03:23:51.730Z,95261.69
2023-03-07T03:26:18.566Z,95251.78
2023-03-07T03:28:45.077Z,95259.41
2023-03-07T03:31:12.054Z,95255.81
2023-03-07T03:33:39.347Z,95262.97
2023-03-07T03:36:10.136Z,95248.22
2023-03-07T03:38:36.917Z,95246.59
2023-03-07T03:41:04.434Z,95249.03
2023-03-07T03:43:30.949Z,95251.31
2023-03-07T03:45:57.707Z,95236.53
2023-03-07T03:48:24.261Z,95233.59
2023-03-07T03:50:50.817Z,95242.50
2023-03-07T03:53:17.370Z,95241.53
2023-03-07T03:55:43.878Z,95238.94
2023-03-07T03:58:11.330Z,95234.09
2023-03-07T04:00:37.829Z,95247.53
2023-03-07T04:03:04.874Z,95240.38
2023-03-07T04:05:32.995Z,95239.56
2023-03-07T04:07:59.563Z,95231.00
2023-03-07T04:10:26.110Z,95233.38
2023-03-07T04:12:52.704Z,95226.94
2023-03-07T04:15:19.196Z,95219.78
2023-03-07T04:17:45.770Z,95228.53
2023-03-07T04:20:17.631Z,95226.25
2023-03-07T04:22:44.472Z,95213.28
2023-03-07T04:25:11.015Z,95219.09
2023-03-07T04:27:37.503Z,95209.34
2023-03-07T04:30:04.207Z,95209.19
2023-03-07T04:32:30.836Z,95203.53
2023-03-07T04:34:57.444Z,95203.19
2023-03-07T04:37:24.013Z,95193.97
2023-03-07T04:39:50.564Z,95195.28
2023-03-07T04:42:17.144Z,95193.50
2023-03-07T04:44:43.684Z,95183.75
2023-03-07T04:47:10.165Z,95187.31
2023-03-07T04:49:36.764Z,95186.34
2023-03-07T04:52:03.390Z,95182.13
2023-03-07T04:54:30.104Z,95181.16
2023-03-07T04:56:56.712Z,95181.78
2023-03-07T04:59:23.240Z,95171.41
2023-03-07T05:01:49.777Z,95180.47
2023-03-07T05:04:16.391Z,95182.13
2023-03-07T05:06:42.945Z,95176.94
2023-03-07T05:09:09.452Z,95172.38
2023-03-07T05:11:35.945Z,95177.59
2023-03-07T05:14:02.495Z,95172.75
2023-03-07T05:16:28.966Z,95167.19
2023-03-07T05:18:55.497Z,95166.41
2023-03-07T05:21:22.003Z,95160.41
2023-03-07T05:23:48.479Z,95152.63
2023-03-07T05:26:14.923Z,95148.59
2023-03-07T05:28:41.458Z,95151.97
2023-03-07T05:31:08.049Z,95150.53
2023-03-07T05:33:34.635Z,95149.09
2023-03-07T05:36:01.485Z,95145.81
2023-03-07T05:38:27.987Z,95138.38
2023-03-07T05:40:54.498Z,95139.53
2023-03-07T05:43:20.996Z,95146.16
2023-03-07T05:45:47.485Z,95144.84
2023-03-07T05:48:13.974Z,95146.16
2023-03-07T05:50:42.115Z,95137.56
2023-03-07T05:53:08.854Z,95141.59
2023-03-07T05:55:35.373Z,95144.72
2023-03-07T05:58:01.887Z,95146.81
2023-03-07T06:00:28.428Z,95137.13
2023-03-07T06:02:54.931Z,95135.47
2023-03-07T06:05:22.225Z,95139.84
2023-03-07T06:07:49.548Z,95132.56
2023-03-07T06:10:16.292Z,95134.81
2023-03-07T06:12:42.759Z,95139.00
2023-03-07T06:15:09.681Z,95141.25
2023-03-07T06:17:36.303Z,95137.84
2023-03-07T06:20:02.904Z,95136.88
2023-03-07T06:22:31.869Z,95131.69
2023-03-07T06:24:58.549Z,95128.34
2023-03-07T06:27:25.218Z,95128.81
2023-03-07T06:29:51.746Z,95133.19
2023-03-07T06:32:18.293Z,95135.97
2023-03-07T06:34:44.905Z,95127.06
2023-03-07T06:37:11.382Z,95135.31
2023-03-07T06:39:37.985Z,95128.97
2023-03-07T06:42:04.621Z,95132.72
2023-03-07T06:44:31.272Z,95125.69
2023-03-07T06:46:57.813Z,95133.13
2023-03-07T06:49:24.318Z,95137.78
2023-03-07T06:51:50.935Z,95138.94
2023-03-07T06:54:17.488Z,95123.69
2023-03-07T06:56:45.504Z,95125.00
2023-03-07T06:59:12.165Z,95126.28
2023-03-07T07:01:38.826Z,95125.94
2023-03-07T07:04:05.466Z,95121.91
2023-03-07T07:06:31.998Z,95131.94
2023-03-07T07:08:58.924Z,95133.72
2023-03-07T07:11:25.773Z,95117.50
2023-03-07T07:13:52.270Z,95123.97
2023-03-07T07:16:19.077Z,95128.00
2023-03-07T07:18:45.726Z,95118.66
2023-03-07T07:21:12.362Z,95112.31
2023-03-07T07:23:40.052Z,95115.06
2023-03-07T07:26:06.964Z,95113.47
2023-03-07T07:28:33.607Z,95113.50
2023-03-07T07:31:00.220Z,95116.91
2023-03-07T07:33:27.678Z,95122.09
2023-03-07T07:35:55.513Z,95116.25
2023-03-07T07:38:23.359Z,95118.59
2023-03-07T07:40:53.194Z,95114.78
2023-03-07T07:43:29.694Z,95124.25
2023-03-07T10:38:47.627Z,95083.22
2023-03-07T10:46:56.554Z,95091.09
2023-03-07T10:53:03.662Z,95097.06
2023-03-07T10:55:34.041Z,95088.72
2023-03-07T11:03:54.093Z,95081.50
2023-03-07T11:06:42.122Z,95085.56
2023-03-07T11:09:24.485Z,95083.66
2023-03-07T11:11:51.307Z,95086.75
2023-03-07T11:20:49.174Z,95084.88
2023-03-07T11:23:48.759Z,95090.72
2023-03-07T11:26:22.566Z,95091.31
2023-03-07T11:28:49.419Z,95087.50
2023-03-07T11:31:27.818Z,95095.38
2023-03-07T11:34:11.548Z,95093.91
2023-03-07T11:36:47.897Z,95096.94
2023-03-07T11:39:18.184Z,95099.72
2023-03-07T11:41:48.561Z,95103.59
2023-03-07T11:44:26.641Z,95108.72
2023-03-07T11:47:12.197Z,95114.66
2023-03-07T11:49:57.967Z,95109.16
2023-03-07T11:52:27.950Z,95112.13
2023-03-07T11:55:21.172Z,95113.50
2023-03-07T11:57:55.169Z,95105.94
2023-03-07T12:00:32.547Z,95107.84
2023-03-07T12:03:07.011Z,95106.41
2023-03-07T12:05:41.015Z,95116.44
2023-03-07T12:08:29.283Z,95104.81
2023-03-07T12:10:56.747Z,95109.72
2023-03-07T12:13:43.482Z,95105.31
2023-03-07T12:16:41.697Z,95111.06
2023-03-07T12:19:28.410Z,95105.94
2023-03-07T12:25:09.389Z,95100.84
2023-03-07T12:27:45.451Z,95109.47
2023-03-07T12:30:31.898Z,95109.34
2023-03-07T12:36:03.410Z,95115.28
2023-03-07T12:38:48.189Z,95109.97
2023-03-07T12:41:33.600Z,95110.16
2023-03-07T12:44:08.357Z,95111.50
2023-03-07T12:46:55.338Z,95109.72
2023-03-07T12:49:24.680Z,95109.03
2023-03-07T12:52:01.585Z,95106.69
2023-03-07T12:54:31.949Z,95109.72
2023-03-07T12:57:31.147Z,95106.56
2023-03-07T13:00:02.357Z,95105.31
2023-03-07T13:02:31.736Z,95100.38
2023-03-07T13:05:02.780Z,95103.78
2023-03-07T13:10:25.822Z,95102.72
2023-03-07T13:12:56.919Z,95094.38
2023-03-07T13:15:26.213Z,95099.56
2023-03-07T13:17:59.880Z,95102.88
2023-03-07T13:20:29.728Z,95103.22
2023-03-07T13:23:00.578Z,95097.22
2023-03-07T13:25:30.442Z,95101.19
2023-03-07T13:28:01.988Z,95101.94
2023-03-07T13:30:38.137Z,95105.09
2023-03-07T13:33:27.043Z,95108.41
2023-03-07T13:35:58.269Z,95105.28
2023-03-07T13:41:08.302Z,95102.78
2023-03-07T13:43:40.620Z,95100.81
2023-03-07T13:46:36.559Z,95100.44
2023-03-07T13:49:04.565Z,95100.72
2023-03-07T13:51:32.929Z,95108.88
2023-03-07T13:54:07.410Z,95104.03
2023-03-07T13:56:40.282Z,95098.50
2023-03-07T13:59:10.418Z,95101.09
2023-03-07T14:01:46.071Z,95106.66
2023-03-07T14:04:39.851Z,95109.09
2023-03-07T14:07:13.140Z,95110.69
2023-03-07T14:09:41.719Z,95109.59
2023-03-07T14:12:09.853Z,95114.13
2023-03-07T14:14:39.771Z,95112.50
2023-03-07T14:17:16.624Z,95117.63
2023-03-07T14:19:46.893Z,95115.28
2023-03-07T14:22:20.541Z,95116.97
2023-03-07T14:25:07.008Z,95122.47
2023-03-07T14:28:07.354Z,95121.38
2023-03-07T14:30:35.437Z,95121.81
2023-03-07T14:33:12.516Z,95124.41
2023-03-07T14:35:49.228Z,95120.56
2023-03-07T14:38:34.215Z,95115.00
2023-03-07T14:41:24.572Z,95113.66
2023-03-07T14:44:10.310Z,95116.59
2023-03-07T14:46:56.053Z,95122.53
2023-03-07T14:49:36.300Z,95124.88
2023-03-07T14:52:06.507Z,95116.16
2023-03-07T14:54:38.306Z,95121.09
2023-03-07T14:57:22.852Z,95122.28
2023-03-07T15:09:40.919Z,95133.84
2023-03-07T15:12:23.809Z,95129.00
2023-03-07T15:17:51.817Z,95122.34
2023-03-07T15:20:28.984Z,95128.00
2023-03-07T15:23:13.029Z,95132.03
2023-03-07T15:25:51.089Z,95136.69
2023-03-07T15:31:11.457Z,95152.09
2023-03-07T15:33:41.965Z,95146.00
2023-03-07T15:39:29.410Z,95141.63
2023-03-07T15:42:08.548Z,95141.34
2023-03-07T15:44:45.396Z,95142.34
2023-03-07T15:47:18.172Z,95137.81
2023-03-07T15:50:03.238Z,95134.16
2023-03-07T15:52:38.512Z,95141.69
2023-03-07T15:55:36.929Z,95142.66
2023-03-07T15:58:06.432Z,95144.00
2023-03-07T16:00:54.538Z,95145.03
2023-03-07T16:03:33.609Z,95150.31
2023-03-07T16:09:03.062Z,95159.22
2023-03-07T16:11:38.220Z,95153.03
2023-03-07T16:16:47.715Z,95142.88
2023-03-07T16:19:14.738Z,95142.25
2023-03-07T16:21:41.504Z,95149.69
2023-03-07T16:24:08.375Z,95152.63
2023-03-07T16:26:35.158Z,95148.06
2023-03-07T16:29:01.935Z,95153.44
2023-03-07T16:31:28.632Z,95151.47
2023-03-07T16:33:56.101Z,95151.19
2023-03-07T16:36:23.102Z,95163.88
2023-03-07T16:38:49.889Z,95161.00
2023-03-07T16:41:17.761Z,95169.09
2023-03-07T16:43:44.824Z,95163.28
2023-03-07T16:46:12.512Z,95165.94
2023-03-07T16:48:39.100Z,95163.69
2023-03-07T16:51:05.982Z,95173.91
2023-03-07T16:53:32.568Z,95170.53
2023-03-07T16:55:59.228Z,95168.44
2023-03-07T16:58:27.840Z,95162.78
2023-03-07T17:00:54.818Z,95159.56
2023-03-07T17:03:21.916Z,95174.16
2023-03-07T17:05:48.833Z,95180.31
2023-03-07T17:08:15.677Z,95179.69
2023-03-07T17:10:44.589Z,95188.44
2023-03-07T17:13:15.022Z,95185.84
2023-03-07T17:15:41.615Z,95195.41
2023-03-07T17:18:08.446Z,95198.94
2023-03-07T17:20:35.031Z,95205.28
2023-03-07T17:23:01.622Z,95206.59
2023-03-07T17:25:28.737Z,95205.63
2023-03-07T17:27:57.095Z,95217.97
2023-03-07T17:30:24.622Z,95218.13
2023-03-07T17:32:51.585Z,95218.94
2023-03-07T17:35:18.442Z,95223.31
2023-03-07T17:37:48.876Z,95225.91
2023-03-07T17:40:15.513Z,95224.13
2023-03-07T17:42:42.620Z,95228.19
2023-03-07T17:45:10.630Z,95238.06
2023-03-07T17:47:37.702Z,95239.03
2023-03-07T17:50:05.757Z,95240.03
2023-03-07T17:52:32.850Z,95237.59
2023-03-07T17:54:59.603Z,95241.81
2023-03-07T17:57:26.820Z,95247.97
2023-03-07T17:59:53.874Z,95248.78
2023-03-07T18:02:20.822Z,95245.53
2023-03-07T18:04:47.650Z,95253.16
2023-03-07T18:07:14.446Z,95253.31
2023-03-07T18:09:41.430Z,95252.69
2023-03-07T18:12:08.682Z,95258.03
2023-03-07T18:14:35.502Z,95261.13
2023-03-07T18:17:02.284Z,95256.59
2023-03-07T18:19:29.185Z,95268.75
2023-03-07T18:21:55.864Z,95265.19
2023-03-07T18:24:26.702Z,95266.63
2023-03-07T18:26:53.910Z,95272.63
2023-03-07T18:29:20.837Z,95268.41
2023-03-07T18:31:47.655Z,95275.22
2023-03-07T18:34:15.525Z,95275.03
2023-03-07T18:36:42.546Z,95281.19
2023-03-07T18:39:11.211Z,95285.75
2023-03-07T18:41:38.308Z,95290.94
2023-03-07T18:44:05.332Z,95290.94
2023-03-07T18:46:33.152Z,95288.00
2023-03-07T18:49:00.381Z,95290.94
2023-03-07T18:51:27.911Z,95291.25
2023-03-07T18:53:55.354Z,95295.31
2023-03-07T18:56:22.672Z,95303.72
2023-03-07T18:58:50.228Z,95300.97
2023-03-07T19:01:19.220Z,95296.13
2023-03-07T19:03:48.517Z,95305.03
2023-03-07T19:06:18.107Z,95313.63
2023-03-07T19:08:45.202Z,95308.44
2023-03-07T19:11:12.994Z,95319.63
2023-03-07T19:13:41.101Z,95323.19
2023-03-07T19:16:10.121Z,95320.44
2023-03-07T19:18:37.127Z,95311.03
2023-03-07T19:21:08.384Z,95312.47
2023-03-07T19:23:37.761Z,95320.44
2023-03-07T19:26:08.052Z,95318.81
2023-03-07T19:28:35.122Z,95325.59
2023-03-07T19:31:11.874Z,95324.81
2023-03-07T19:33:38.939Z,95335.00
2023-03-07T19:36:10.328Z,95337.59
2023-03-07T19:38:38.628Z,95335.97
2023-03-07T19:41:06.715Z,95349.91
2023-03-07T19:43:35.241Z,95354.47
2023-03-07T19:46:04.551Z,95355.09
2023-03-07T19:48:31.563Z,95360.78
2023-03-07T19:51:01.352Z,95358.50
2023-03-07T19:53:28.759Z,95364.81
2023-03-07T19:55:55.904Z,95365.94
2023-03-07T19:58:26.832Z,95376.47
2023-03-07T20:00:56.291Z,95374.53
2023-03-07T20:03:27.231Z,95380.19
2023-03-07T20:06:02.716Z,95383.59
2023-03-07T20:08:33.716Z,95382.78
2023-03-07T20:13:57.545Z,95373.41
2023-03-07T20:16:33.676Z,95382.28
2023-03-07T20:21:52.067Z,95393.31
2023-03-07T20:24:20.380Z,95389.59
2023-03-07T20:26:48.797Z,95396.38
2023-03-07T20:29:20.322Z,95393.97
2023-03-07T20:31:59.099Z,95399.16
